createdAt,value
2022-08-22T00:02:13.875Z,20.07
2022-08-22T00:03:00.473Z,22.16
2022-08-22T00:04:47.489Z,20.08
2022-08-22T00:07:39.943Z,19.86
2022-08-22T00:10:25.286Z,20.11
2022-08-22T00:13:16.069Z,19.90
2022-08-22T00:16:00.896Z,20.00
2022-08-22T00:18:49.566Z,19.80
2022-08-22T00:21:30.286Z,19.86
2022-08-22T00:24:18.861Z,19.77
2022-08-22T00:26:49.194Z,19.98
2022-08-22T00:29:20.378Z,19.87
2022-08-22T00:31:51.524Z,19.82
2022-08-22T00:34:22.614Z,19.69
2022-08-22T00:37:07.426Z,19.47
2022-08-22T00:39:47.895Z,19.51
2022-08-22T00:42:31.374Z,19.55
2022-08-22T00:45:17.179Z,19.73
2022-08-22T00:47:58.339Z,19.51
2022-08-22T00:50:49.962Z,19.41
2022-08-22T00:53:49.750Z,19.42
2022-08-22T00:56:22.068Z,19.52
2022-08-22T00:59:25.259Z,19.26
2022-08-22T01:02:18.003Z,19.35
2022-08-22T01:05:07.703Z,19.39
2022-08-22T01:07:41.301Z,19.34
2022-08-22T01:10:30.898Z,19.13
2022-08-22T01:13:21.982Z,19.30
2022-08-22T01:15:50.802Z,19.37
2022-08-22T01:18:48.235Z,19.32
2022-08-22T01:21:24.147Z,19.25
2022-08-22T01:24:20.242Z,19.27
2022-08-22T01:27:20.970Z,18.92
2022-08-22T01:30:05.345Z,18.91
2022-08-22T01:32:43.083Z,19.08
2022-08-22T01:35:24.927Z,19.23
2022-08-22T01:38:29.026Z,19.14
2022-08-22T01:41:18.991Z,19.06
2022-08-22T01:44:03.540Z,19.19
2022-08-22T01:46:37.280Z,19.23
2022-08-22T01:49:12.721Z,19.06
2022-08-22T01:51:56.890Z,19.00
2022-08-22T01:54:54.796Z,18.85
2022-08-22T01:57:22.837Z,19.11
2022-08-22T01:59:52.787Z,19.06
2022-08-22T02:02:42.423Z,18.92
2022-08-22T02:05:21.010Z,18.90
2022-08-22T02:07:56.487Z,18.90
2022-08-22T02:10:54.475Z,18.68
2022-08-22T02:13:35.046Z,18.70
2022-08-22T02:16:16.289Z,18.72
2022-08-22T02:19:23.353Z,18.59
2022-08-22T02:22:20.675Z,18.42
2022-08-22T02:24:47.527Z,18.86
2022-08-22T02:27:46.259Z,18.66
2022-08-22T02:30:25.977Z,18.67
2022-08-22T02:32:59.392Z,18.47
2022-08-22T02:35:31.263Z,18.59
2022-08-22T02:38:16.076Z,18.57
2022-08-22T02:41:04.155Z,18.30
2022-08-22T02:43:39.402Z,18.55
2022-08-22T02:46:41.368Z,18.34
2022-08-22T02:50:03.934Z,18.14
2022-08-22T02:52:51.436Z,18.20
2022-08-22T02:55:31.292Z,18.22
2022-08-22T02:58:43.002Z,18.11
2022-08-22T03:01:27.986Z,18.16
2022-08-22T03:04:45.599Z,18.21
2022-08-22T03:07:18.278Z,18.38
2022-08-22T03:09:47.857Z,18.38
2022-08-22T03:12:30.110Z,18.24
2022-08-22T03:15:49.714Z,18.24
2022-08-22T03:18:19.390Z,18.46
2022-08-22T03:21:21.228Z,18.08
2022-08-22T03:23:52.338Z,18.47
2022-08-22T03:26:44.979Z,18.23
2022-08-22T03:29:27.306Z,18.13
2022-08-22T03:32:23.925Z,18.09
2022-08-22T03:35:01.778Z,18.14
2022-08-22T03:37:31.278Z,18.24
2022-08-22T03:40:03.921Z,18.17
2022-08-22T03:42:39.626Z,18.24
2022-08-22T03:45:22.592Z,18.19
2022-08-22T03:48:02.354Z,17.93
2022-08-22T03:50:54.719Z,17.89
2022-08-22T03:53:44.142Z,17.85
2022-08-22T03:56:34.242Z,17.78
2022-08-22T03:59:22.665Z,17.75
2022-08-22T04:02:33.402Z,17.74
2022-08-22T04:05:20.706Z,17.85
2022-08-22T04:08:13.051Z,17.89
2022-08-22T04:10:59.465Z,17.77
2022-08-22T04:13:54.464Z,17.86
2022-08-22T04:16:47.002Z,17.78
2022-08-22T04:19:21.739Z,17.93
2022-08-22T04:22:08.394Z,18.02
2022-08-22T04:24:52.259Z,17.85
2022-08-22T04:27:40.433Z,17.71
2022-08-22T04:30:30.237Z,17.70
2022-08-22T04:33:12.083Z,17.91
2022-08-22T04:36:02.759Z,17.79
2022-08-22T04:38:48.882Z,17.64
2022-08-22T04:41:20.402Z,17.77
2022-08-22T04:44:04.545Z,17.74
2022-08-22T04:46:54.670Z,17.56
2022-08-22T04:49:40.715Z,17.63
2022-08-22T04:52:34.993Z,17.72
2022-08-22T04:56:17.209Z,17.57
2022-08-22T04:58:51.581Z,17.76
2022-08-22T05:01:22.666Z,17.96
2022-08-22T05:04:02.230Z,17.83
2022-08-22T05:06:31.951Z,18.00
2022-08-22T05:09:05.637Z,17.96
2022-08-22T05:11:33.879Z,18.05
2022-08-22T05:18:36.935Z,18.07
2022-08-22T05:21:07.466Z,18.14
2022-08-22T05:23:44.391Z,18.13
2022-08-22T05:26:12.476Z,18.32
2022-08-22T05:28:51.322Z,18.34
2022-08-22T05:31:30.970Z,18.35
2022-08-22T05:34:13.737Z,18.29
2022-08-22T05:36:46.265Z,18.50
2022-08-22T05:39:19.708Z,18.44
2022-08-22T05:41:46.892Z,18.59
2022-08-22T05:44:33.516Z,18.30
2022-08-22T05:47:02.929Z,18.60
2022-08-22T05:49:38.793Z,18.50
2022-08-22T05:52:08.259Z,18.65
2022-08-22T05:54:50.139Z,18.62
2022-08-22T05:57:30.462Z,18.60
2022-08-22T06:00:12.033Z,18.54
2022-08-22T06:02:48.259Z,18.58
2022-08-22T06:05:22.126Z,18.77
2022-08-22T06:07:50.428Z,18.87
2022-08-22T06:10:24.713Z,18.93
2022-08-22T06:13:12.962Z,19.01
2022-08-22T06:20:08.319Z,19.03
2022-08-22T06:22:46.791Z,18.99
2022-08-22T06:25:18.710Z,19.35
2022-08-22T06:27:47.877Z,19.33
2022-08-22T06:30:16.346Z,19.43
2022-08-22T06:33:00.140Z,19.58
2022-08-22T06:35:50.683Z,19.65
2022-08-22T06:38:19.779Z,19.72
2022-08-22T06:40:47.003Z,19.77
2022-08-22T06:43:13.806Z,19.86
2022-08-22T06:45:41.089Z,19.86
2022-08-22T06:53:05.369Z,19.86
2022-08-22T06:55:32.874Z,20.09
2022-08-22T06:58:03.988Z,20.09
2022-08-22T07:00:35.325Z,20.12
2022-08-22T07:03:20.255Z,20.10
2022-08-22T07:05:48.080Z,20.29
2022-08-22T07:08:19.803Z,20.25
2022-08-22T07:10:59.123Z,20.28
2022-08-22T07:13:28.276Z,20.43
2022-08-22T07:15:57.853Z,20.47
2022-08-22T07:18:26.886Z,20.56
2022-08-22T07:20:59.290Z,20.59
2022-08-22T07:23:40.409Z,20.55
2022-08-22T07:26:34.009Z,20.54
2022-08-22T07:29:05.056Z,20.69
2022-08-22T07:31:42.912Z,20.73
2022-08-22T07:34:23.049Z,20.77
2022-08-22T07:37:00.959Z,20.84
2022-08-22T07:39:39.674Z,20.76
2022-08-22T07:42:28.528Z,20.80
2022-08-22T07:45:07.768Z,20.91
2022-08-22T07:47:49.549Z,20.90
2022-08-22T07:50:24.939Z,20.94
2022-08-22T07:52:52.671Z,21.03
2022-08-22T07:55:22.787Z,21.06
2022-08-22T07:57:55.855Z,21.03
2022-08-22T08:00:25.143Z,21.16
2022-08-22T08:02:58.372Z,21.17
2022-08-22T08:05:28.362Z,21.21
2022-08-22T08:07:56.159Z,21.29
2022-08-22T08:10:27.635Z,21.29
2022-08-22T08:13:02.327Z,21.33
2022-08-22T08:15:31.901Z,21.42
2022-08-22T08:20:30.249Z,21.53
2022-08-22T08:22:57.773Z,21.57
2022-08-22T08:25:27.786Z,21.62
2022-08-22T08:28:13.214Z,21.69
2022-08-22T08:30:56.266Z,21.69
2022-08-22T08:33:26.944Z,21.78
2022-08-22T08:36:16.470Z,21.74
2022-08-22T08:39:17.191Z,21.81
2022-08-22T08:42:59.318Z,21.79
2022-08-22T08:54:43.512Z,21.99
2022-08-22T08:57:41.548Z,21.96
2022-08-22T09:00:50.556Z,22.02
2022-08-22T09:03:51.272Z,22.11
2022-08-22T09:06:39.250Z,22.22
2022-08-22T09:09:46.729Z,22.20
2022-08-22T09:12:25.375Z,22.31
2022-08-22T09:15:19.649Z,22.25
2022-08-22T09:18:18.407Z,22.32
2022-08-22T09:21:31.275Z,22.35
2022-08-22T09:24:16.834Z,22.36
2022-08-22T09:26:57.322Z,22.42
2022-08-22T09:29:55.147Z,22.46
2022-08-22T09:32:43.930Z,22.47
2022-08-22T09:35:19.247Z,22.56
2022-08-22T09:38:08.998Z,22.52
2022-08-22T09:40:54.877Z,22.54
2022-08-22T09:43:37.684Z,22.62
2022-08-22T09:46:32.264Z,22.69
2022-08-22T09:49:13.916Z,22.70
2022-08-22T09:52:14.428Z,22.72
2022-08-22T09:55:35.284Z,22.72
2022-08-22T09:58:25.882Z,22.76
2022-08-22T10:01:24.319Z,22.79
2022-08-22T10:04:07.090Z,22.83
2022-08-22T10:07:03.997Z,22.85
2022-08-22T10:09:57.351Z,22.94
2022-08-22T10:12:51.170Z,23.01
2022-08-22T10:15:35.819Z,23.01
2022-08-22T10:18:14.839Z,23.08
2022-08-22T10:21:20.363Z,23.08
2022-08-22T10:24:25.166Z,23.16
2022-08-22T10:27:02.279Z,23.25
2022-08-22T10:29:48.314Z,23.31
2022-08-22T10:32:14.896Z,23.37
2022-08-22T10:34:44.730Z,23.40
2022-08-22T10:37:39.525Z,23.46
2022-08-22T10:40:16.835Z,23.43
2022-08-22T10:43:28.894Z,23.44
2022-08-22T10:46:12.370Z,23.33
2022-08-22T10:48:46.327Z,23.34
2022-08-22T10:51:28.644Z,23.31
2022-08-22T10:54:32.640Z,23.29
2022-08-22T10:57:22.545Z,23.28
2022-08-22T10:59:52.434Z,23.32
2022-08-22T11:02:47.501Z,23.26
2022-08-22T11:05:30.350Z,23.30
2022-08-22T11:08:04.183Z,23.19
2022-08-22T11:11:07.661Z,23.29
2022-08-22T11:14:49.678Z,23.40
2022-08-22T11:17:40.750Z,23.56
2022-08-22T11:20:19.636Z,23.64
2022-08-22T11:23:11.800Z,23.72
2022-08-22T11:25:54.068Z,23.74
2022-08-22T11:28:25.575Z,23.82
2022-08-22T11:31:22.993Z,23.85
2022-08-22T11:34:08.566Z,23.82
2022-08-22T11:37:00.544Z,23.95
2022-08-22T11:39:56.379Z,23.91
2022-08-22T11:43:12.076Z,23.92
2022-08-22T11:45:51.012Z,24.04
2022-08-22T11:48:17.652Z,23.93
2022-08-22T11:50:55.538Z,24.09
2022-08-22T11:53:33.557Z,24.15
2022-08-22T11:56:24.780Z,24.16
2022-08-22T11:59:01.113Z,24.21
2022-08-22T12:01:34.201Z,24.25
2022-08-22T12:04:12.839Z,24.27
2022-08-22T12:07:01.021Z,24.30
2022-08-22T12:09:33.703Z,24.35
2022-08-22T12:12:20.167Z,24.38
2022-08-22T12:15:15.851Z,24.38
2022-08-22T12:18:07.141Z,24.43
2022-08-22T12:20:55.995Z,24.39
2022-08-22T12:23:55.570Z,24.38
2022-08-22T12:26:34.280Z,24.51
2022-08-22T12:29:45.061Z,24.46
2022-08-22T12:32:33.947Z,24.50
2022-08-22T12:35:39.942Z,24.47
2022-08-22T12:38:40.602Z,24.50
2022-08-22T12:41:11.635Z,24.60
2022-08-22T12:43:47.128Z,24.63
2022-08-22T12:46:37.806Z,24.63
2022-08-22T12:49:14.011Z,24.79
2022-08-22T12:52:12.110Z,24.82
2022-08-22T12:55:05.866Z,24.85
2022-08-22T12:57:40.367Z,24.90
2022-08-22T13:00:26.908Z,24.86
2022-08-22T13:02:59.272Z,25.00
2022-08-22T13:05:28.067Z,25.00
2022-08-22T13:08:08.015Z,24.94
2022-08-22T13:10:48.603Z,24.91
2022-08-22T13:13:31.358Z,24.88
2022-08-22T13:16:05.736Z,24.88
2022-08-22T13:18:37.820Z,24.85
2022-08-22T13:21:07.922Z,24.86
2022-08-22T13:23:46.468Z,24.80
2022-08-22T13:26:26.958Z,24.80
2022-08-22T13:29:25.052Z,24.81
2022-08-22T13:33:08.640Z,24.68
2022-08-22T13:35:45.614Z,24.78
2022-08-22T13:38:25.827Z,24.81
2022-08-22T13:40:54.754Z,24.85
2022-08-22T13:43:24.616Z,24.83
2022-08-22T13:45:57.739Z,24.81
2022-08-22T13:48:47.003Z,24.77
2022-08-22T13:51:21.189Z,24.84
2022-08-22T13:54:02.177Z,24.79
2022-08-22T13:56:39.259Z,24.80
2022-08-22T13:59:47.106Z,24.83
2022-08-22T14:02:18.471Z,24.86
2022-08-22T14:04:51.568Z,24.89
2022-08-22T14:07:30.103Z,24.95
2022-08-22T14:10:14.853Z,24.99
2022-08-22T14:13:11.545Z,25.02
2022-08-22T14:15:46.057Z,25.13
2022-08-22T14:18:30.417Z,25.15
2022-08-22T14:21:19.881Z,25.14
2022-08-22T14:23:53.915Z,25.23
2022-08-22T14:26:32.792Z,25.24
2022-08-22T14:29:07.570Z,25.31
2022-08-22T14:31:35.285Z,25.33
2022-08-22T14:34:10.158Z,25.36
2022-08-22T14:36:55.293Z,25.29
2022-08-22T14:39:26.599Z,25.35
2022-08-22T14:42:10.852Z,25.39
2022-08-22T14:44:44.978Z,25.45
2022-08-22T14:47:54.016Z,25.43
2022-08-22T14:50:30.366Z,25.44
2022-08-22T14:53:24.989Z,25.33
2022-08-22T14:56:21.582Z,25.29
2022-08-22T14:58:58.441Z,25.33
2022-08-22T15:01:32.625Z,25.38
2022-08-22T15:04:08.545Z,25.44
2022-08-22T15:06:38.924Z,25.55
2022-08-22T15:09:31.438Z,25.56
2022-08-22T15:11:59.106Z,25.67
2022-08-22T15:14:37.146Z,25.66
2022-08-22T15:17:08.903Z,25.74
2022-08-22T15:19:42.523Z,25.74
2022-08-22T15:22:25.683Z,25.72
2022-08-22T15:25:02.765Z,25.74
2022-08-22T15:27:31.807Z,25.77
2022-08-22T15:30:01.118Z,25.76
2022-08-22T15:32:32.501Z,25.77
2022-08-22T15:35:26.629Z,25.71
2022-08-22T15:38:30.537Z,25.64
2022-08-22T15:41:36.921Z,25.65
2022-08-22T15:44:32.196Z,25.66
2022-08-22T15:47:31.544Z,25.59
2022-08-22T15:50:09.351Z,25.59
2022-08-22T15:53:06.827Z,25.51
2022-08-22T15:55:35.406Z,25.56
2022-08-22T15:58:08.770Z,25.53
2022-08-22T16:00:45.506Z,25.52
2022-08-22T16:03:24.566Z,25.47
2022-08-22T16:05:55.777Z,25.50
2022-08-22T16:08:33.007Z,25.48
2022-08-22T16:11:02.690Z,25.51
2022-08-22T16:13:33.560Z,25.51
2022-08-22T16:16:23.684Z,25.47
2022-08-22T16:18:51.278Z,25.46
2022-08-22T16:21:23.921Z,25.41
2022-08-22T16:23:56.690Z,25.25
2022-08-22T16:26:29.306Z,25.37
2022-08-22T16:28:59.244Z,25.21
2022-08-22T16:31:44.333Z,25.37
2022-08-22T16:34:18.128Z,25.33
2022-08-22T16:37:03.257Z,25.28
2022-08-22T16:40:24.386Z,25.26
2022-08-22T16:43:18.502Z,25.26
2022-08-22T16:45:45.583Z,25.36
2022-08-22T16:48:27.369Z,25.33
2022-08-22T16:51:15.934Z,25.26
2022-08-22T16:54:02.619Z,25.26
2022-08-22T16:57:08.991Z,25.28
2022-08-22T16:59:43.362Z,25.36
2022-08-22T17:02:15.920Z,25.39
2022-08-22T17:05:19.942Z,25.32
2022-08-22T17:08:02.524Z,25.34
2022-08-22T17:10:43.575Z,25.35
2022-08-22T17:13:39.135Z,25.36
2022-08-22T17:16:17.297Z,25.42
2022-08-22T17:18:54.305Z,25.40
2022-08-22T17:21:40.349Z,25.33
2022-08-22T17:24:35.516Z,25.29
2022-08-22T17:27:31.108Z,25.25
2022-08-22T17:30:09.857Z,25.32
2022-08-22T17:33:10.683Z,25.24
2022-08-22T17:36:04.581Z,25.21
2022-08-22T17:39:15.902Z,25.19
2022-08-22T17:42:19.081Z,25.15
2022-08-22T17:44:56.898Z,25.20
2022-08-22T17:47:37.577Z,25.17
2022-08-22T17:50:14.222Z,25.13
2022-08-22T17:52:56.721Z,25.09
2022-08-22T17:55:31.662Z,25.08
2022-08-22T17:58:13.470Z,25.09
2022-08-22T18:01:13.989Z,25.00
2022-08-22T18:03:51.626Z,24.95
2022-08-22T18:06:22.850Z,24.95
2022-08-22T18:09:13.664Z,24.90
2022-08-22T18:12:07.278Z,24.76
2022-08-22T18:14:44.206Z,24.80
2022-08-22T18:17:21.082Z,24.78
2022-08-22T18:20:06.426Z,24.72
2022-08-22T18:22:39.862Z,24.75
2022-08-22T18:25:18.731Z,24.70
2022-08-22T18:27:55.973Z,24.73
2022-08-22T18:31:39.083Z,24.61
2022-08-22T18:34:33.686Z,24.57
2022-08-22T18:37:12.399Z,24.59
2022-08-22T18:43:31.814Z,24.56
2022-08-22T18:46:03.798Z,24.54
2022-08-22T18:48:59.270Z,24.39
2022-08-22T18:51:38.856Z,24.37
2022-08-22T18:54:05.518Z,24.40
2022-08-22T18:56:50.226Z,24.34
2022-08-22T18:59:49.078Z,24.15
2022-08-22T19:02:37.438Z,24.11
2022-08-22T19:05:18.993Z,24.15
2022-08-22T19:08:11.783Z,24.06
2022-08-22T19:10:53.944Z,24.09
2022-08-22T19:13:33.976Z,24.13
2022-08-22T19:16:25.511Z,24.14
2022-08-22T19:18:55.730Z,24.29
2022-08-22T19:21:51.582Z,24.11
2022-08-22T19:24:27.394Z,23.98
2022-08-22T19:27:18.759Z,23.91
2022-08-22T19:29:47.342Z,24.00
2022-08-22T19:32:49.490Z,23.84
2022-08-22T19:35:50.118Z,23.85
2022-08-22T19:38:53.598Z,23.70
2022-08-22T19:41:59.518Z,23.54
2022-08-22T19:44:37.678Z,23.67
2022-08-22T19:47:26.803Z,23.68
2022-08-22T19:50:17.925Z,23.60
2022-08-22T19:53:08.470Z,23.74
2022-08-22T19:55:37.834Z,23.71
2022-08-22T19:58:04.454Z,23.69
2022-08-22T20:01:06.450Z,23.50
2022-08-22T20:04:05.229Z,23.62
2022-08-22T20:06:45.991Z,23.56
2022-08-22T20:09:18.370Z,23.54
2022-08-22T20:12:15.137Z,23.35
2022-08-22T20:14:44.755Z,23.43
2022-08-22T20:17:39.557Z,23.15
2022-08-22T20:20:35.346Z,23.30
2022-08-22T20:23:08.375Z,23.31
2022-08-22T20:25:44.160Z,23.15
2022-08-22T20:28:31.344Z,23.08
2022-08-22T20:31:00.590Z,23.21
2022-08-22T20:33:31.734Z,23.16
2022-08-22T20:36:01.325Z,23.19
2022-08-22T20:38:56.382Z,23.07
2022-08-22T20:41:39.080Z,22.87
2022-08-22T20:44:12.322Z,22.88
2022-08-22T20:46:55.174Z,22.96
2022-08-22T20:49:28.685Z,22.97
2022-08-22T20:51:55.312Z,23.02
2022-08-22T20:54:24.341Z,22.92
2022-08-22T20:56:53.663Z,22.98
2022-08-22T20:59:37.561Z,22.88
2022-08-22T21:02:13.019Z,23.03
2022-08-22T21:04:49.351Z,23.00
2022-08-22T21:07:34.568Z,22.83
2022-08-22T21:10:37.614Z,22.93
2022-08-22T21:13:08.515Z,22.81
2022-08-22T21:15:41.697Z,22.79
2022-08-22T21:18:11.506Z,22.96
2022-08-22T21:20:38.835Z,22.84
2022-08-22T21:23:10.550Z,22.77
2022-08-22T21:26:21.348Z,22.45
2022-08-22T21:28:50.774Z,22.63
2022-08-22T21:31:21.163Z,22.74
2022-08-22T21:33:50.097Z,22.82
2022-08-22T21:36:20.407Z,22.74
2022-08-22T21:39:04.050Z,22.58
2022-08-22T21:41:30.751Z,22.70
2022-08-22T21:44:17.466Z,22.52
2022-08-22T21:46:44.278Z,22.69
2022-08-22T21:49:23.598Z,22.61
2022-08-22T21:51:51.026Z,22.71
2022-08-22T21:54:32.610Z,22.53
2022-08-22T21:57:11.110Z,22.50
2022-08-22T21:59:51.905Z,22.59
2022-08-22T22:02:40.920Z,22.49
2022-08-22T22:05:18.011Z,22.46
2022-08-22T22:07:46.390Z,22.57
2022-08-22T22:10:16.836Z,22.44
2022-08-22T22:12:45.560Z,22.43
2022-08-22T22:15:15.511Z,22.35
2022-08-22T22:17:42.151Z,22.38
2022-08-22T22:20:09.950Z,22.35
2022-08-22T22:22:36.991Z,22.45
2022-08-22T22:25:40.609Z,22.33
2022-08-22T22:28:00.122Z,22.33
2022-08-22T22:30:26.898Z,22.28
2022-08-22T22:32:53.642Z,22.23
2022-08-22T22:35:21.635Z,22.20
2022-08-22T22:37:48.414Z,22.20
2022-08-22T22:40:15.252Z,22.14
2022-08-22T22:42:42.703Z,22.13
2022-08-22T22:45:10.667Z,22.11
2022-08-22T22:47:37.940Z,22.09
2022-08-22T22:50:05.910Z,22.07
2022-08-22T22:52:32.625Z,22.04
2022-08-22T22:54:59.282Z,21.96
2022-08-22T22:57:26.362Z,21.97
2022-08-22T22:59:55.433Z,22.00
2022-08-22T23:02:23.017Z,21.95
2022-08-22T23:04:53.715Z,21.77
2022-08-22T23:07:21.553Z,21.81
2022-08-22T23:09:48.234Z,21.79
2022-08-22T23:12:14.984Z,21.78
2022-08-22T23:14:41.628Z,21.78
2022-08-22T23:17:08.347Z,21.78
2022-08-22T23:19:36.062Z,21.73
2022-08-22T23:22:03.007Z,21.68
2022-08-22T23:24:31.072Z,21.71
2022-08-22T23:26:57.933Z,21.81
2022-08-22T23:29:26.376Z,21.81
2022-08-22T23:31:54.695Z,21.70
2022-08-22T23:34:27.092Z,21.63
2022-08-22T23:36:55.502Z,21.68
2022-08-22T23:39:23.298Z,21.65
2022-08-22T23:41:50.825Z,21.58
2022-08-22T23:44:19.998Z,21.62
2022-08-22T23:46:46.781Z,21.57
2022-08-22T23:49:14.371Z,21.59
2022-08-22T23:51:41.463Z,21.56
2022-08-22T23:54:08.233Z,21.58
2022-08-22T23:56:43.057Z,21.65
2022-08-22T23:59:13.348Z,21.61
